Elmendorf Air Force Base Airport (EDF)

 

Airport Diagram
Current Weather/Forecast (VFR Conditions)
METAR PAED 100456Z AUTO 00000KT 10SM OVC140 17/13 A2970 RMK AO2 SLP053 T01700125 $
TAF TAF AMD PAED 100315Z 1003/1108 VRB06KT 9999 FEW035 BKN080 QNH2966INS TEMPO 1003/1005 9000 -TSRA BKN030CB BECMG 1004/1005 VRB06KT 8000 -SHRA SCT015 OVC020 QNH2969INS BECMG 1013/1014 VRB06KT 9999 NSW BKN015 OVC080 QNH2970INS BECMG 1022/1023 VRB06KT 9999 FEW015 SCT050 QNH2969INS TX20/1003Z TN14/1016Z

All Charts

Inbound Traffic (Arrivals)

No inbound traffic.


Outbound Traffic (Departures)

No outbound traffic.